createdAt,value
2022-08-17T00:02:16.363Z,21.50
2022-08-17T00:07:27.417Z,21.44
2022-08-17T00:12:43.682Z,21.39
2022-08-17T00:17:48.044Z,21.36
2022-08-17T00:22:50.057Z,21.29
2022-08-17T00:27:51.956Z,21.24
2022-08-17T00:33:12.249Z,21.22
2022-08-17T00:38:17.877Z,21.19
2022-08-17T00:43:33.520Z,21.10
2022-08-17T00:48:35.289Z,20.93
2022-08-17T00:53:56.263Z,20.76
2022-08-17T00:58:57.949Z,20.70
2022-08-17T01:04:00.047Z,20.65
2022-08-17T01:09:02.053Z,20.72
2022-08-17T01:14:03.781Z,20.48
2022-08-17T01:19:09.279Z,20.35
2022-08-17T01:24:10.949Z,20.44
2022-08-17T01:29:12.714Z,20.40
2022-08-17T01:34:15.167Z,20.25
2022-08-17T01:39:50.355Z,20.05
2022-08-17T01:44:55.197Z,19.96
2022-08-17T01:49:56.885Z,19.99
2022-08-17T01:54:58.534Z,19.95
2022-08-17T02:00:00.469Z,19.92
2022-08-17T02:05:02.165Z,19.85
2022-08-17T02:10:05.485Z,19.92
2022-08-17T02:15:21.597Z,19.86
2022-08-17T02:20:41.778Z,19.77
2022-08-17T02:25:44.843Z,19.72
2022-08-17T02:31:00.992Z,19.67
2022-08-17T02:36:04.965Z,19.65
2022-08-17T02:41:06.761Z,19.60
2022-08-17T02:46:08.471Z,19.60
2022-08-17T02:51:10.161Z,19.61
2022-08-17T02:56:11.831Z,19.61
2022-08-17T03:01:13.649Z,19.62
2022-08-17T03:06:16.664Z,19.57
2022-08-17T03:11:18.337Z,19.60
2022-08-17T03:16:20.005Z,19.61
2022-08-17T03:21:21.670Z,19.58
2022-08-17T03:26:23.332Z,19.46
2022-08-17T03:31:24.997Z,19.44
2022-08-17T03:36:26.708Z,19.42
2022-08-17T03:41:28.413Z,19.35
2022-08-17T03:46:48.610Z,19.21
2022-08-17T03:52:09.127Z,19.16
2022-08-17T03:57:11.025Z,19.16
2022-08-17T04:02:26.869Z,19.06
2022-08-17T04:07:29.776Z,19.02
2022-08-17T04:12:42.351Z,18.85
2022-08-17T04:17:44.285Z,18.85
2022-08-17T04:22:59.544Z,18.88
2022-08-17T04:28:01.464Z,18.99
2022-08-17T04:33:08.666Z,19.14
2022-08-17T04:38:12.656Z,19.12
2022-08-17T04:43:17.562Z,19.13
2022-08-17T04:48:20.798Z,18.94
2022-08-17T04:53:22.462Z,18.83
2022-08-17T04:58:24.243Z,18.82
2022-08-17T05:03:25.931Z,18.92
2022-08-17T05:08:27.683Z,19.05
2022-08-17T05:13:29.756Z,18.97
2022-08-17T05:18:31.502Z,18.92
2022-08-17T05:23:42.078Z,19.02
2022-08-17T05:28:45.079Z,19.25
2022-08-17T05:33:47.735Z,19.42
2022-08-17T05:38:50.557Z,19.55
2022-08-17T05:43:56.197Z,19.62
2022-08-17T05:49:01.605Z,19.77
2022-08-17T05:54:13.168Z,19.86
2022-08-17T05:59:23.772Z,19.91
2022-08-17T06:04:47.973Z,19.99
2022-08-17T06:10:07.801Z,20.06
2022-08-17T06:15:24.855Z,20.22
2022-08-17T06:20:31.966Z,20.39
2022-08-17T06:25:39.036Z,20.59
2022-08-17T06:30:59.633Z,20.75
2022-08-17T06:36:09.667Z,20.89
2022-08-17T06:41:42.882Z,21.07
2022-08-17T06:46:48.531Z,21.25
2022-08-17T06:51:52.054Z,21.49
2022-08-17T06:57:18.866Z,21.67
2022-08-17T07:02:52.332Z,21.85
2022-08-17T07:08:01.736Z,21.96
2022-08-17T07:13:15.206Z,22.09
2022-08-17T07:18:16.868Z,22.25
2022-08-17T07:23:23.029Z,22.35
2022-08-17T07:28:34.920Z,22.53
2022-08-17T07:33:36.829Z,22.69
2022-08-17T07:38:54.762Z,22.89
2022-08-17T07:43:56.449Z,23.09
2022-08-17T07:49:03.050Z,23.27
2022-08-17T07:54:29.482Z,23.45
2022-08-17T07:59:35.645Z,23.71
2022-08-17T08:04:59.730Z,23.94
2022-08-17T08:10:14.061Z,24.17
2022-08-17T08:15:21.803Z,24.38
2022-08-17T08:20:52.306Z,24.65
2022-08-17T08:26:29.567Z,24.92
2022-08-17T08:31:57.574Z,25.15
2022-08-17T08:37:32.732Z,25.38
2022-08-17T08:42:42.802Z,25.62
2022-08-17T08:47:53.713Z,25.89
2022-08-17T08:53:21.268Z,26.11
2022-08-17T08:58:49.125Z,26.32
2022-08-17T09:04:25.011Z,26.55
2022-08-17T09:09:55.127Z,26.77
2022-08-17T09:15:12.727Z,27.00
2022-08-17T09:20:35.527Z,27.10
2022-08-17T09:25:55.256Z,27.22
2022-08-17T09:31:02.925Z,27.37
2022-08-17T09:36:08.383Z,27.48
2022-08-17T09:41:17.601Z,27.62
2022-08-17T09:46:25.714Z,27.75
2022-08-17T09:51:40.098Z,27.83
2022-08-17T09:57:05.904Z,28.07
2022-08-17T10:02:45.714Z,28.32
2022-08-17T10:08:11.185Z,28.49
2022-08-17T10:13:27.933Z,28.60
2022-08-17T10:18:37.631Z,28.73
2022-08-17T10:23:57.632Z,28.91
2022-08-17T10:29:06.620Z,29.02
2022-08-17T10:34:46.084Z,29.10
2022-08-17T10:40:18.066Z,29.20
2022-08-17T10:45:23.402Z,29.31
2022-08-17T10:50:55.596Z,29.39
2022-08-17T10:56:18.006Z,29.55
2022-08-17T11:01:29.347Z,29.59
2022-08-17T11:06:37.195Z,29.73
2022-08-17T11:11:47.667Z,29.82
2022-08-17T11:17:08.012Z,30.02
2022-08-17T11:22:31.298Z,30.15
2022-08-17T11:27:35.293Z,30.45
2022-08-17T11:32:47.802Z,30.72
2022-08-17T11:38:18.377Z,31.21
2022-08-17T11:43:48.404Z,31.69
2022-08-17T11:49:11.841Z,32.08
2022-08-17T11:54:33.231Z,32.66
2022-08-17T11:59:45.780Z,33.19
2022-08-17T12:05:12.814Z,33.14
2022-08-17T12:10:17.180Z,33.67
2022-08-17T12:15:21.960Z,34.08
2022-08-17T12:20:34.992Z,34.38
2022-08-17T12:25:36.501Z,34.38
2022-08-17T12:30:38.391Z,34.83
2022-08-17T12:35:40.137Z,35.59
2022-08-17T12:40:53.286Z,35.86
2022-08-17T12:45:57.221Z,36.16
2022-08-17T12:51:00.479Z,36.40
2022-08-17T12:56:02.429Z,36.88
2022-08-17T13:01:09.488Z,36.48
2022-08-17T13:06:14.247Z,36.79
2022-08-17T13:11:18.472Z,36.16
2022-08-17T13:16:27.895Z,35.71
2022-08-17T13:21:30.580Z,36.27
2022-08-17T13:26:38.408Z,36.41
2022-08-17T13:31:49.792Z,36.03
2022-08-17T13:37:29.820Z,35.58
2022-08-17T13:42:50.571Z,35.16
2022-08-17T13:48:13.502Z,35.59
2022-08-17T13:53:17.670Z,35.21
2022-08-17T13:58:27.550Z,34.75
2022-08-17T14:03:29.228Z,34.42
2022-08-17T14:08:30.927Z,34.11
2022-08-17T14:13:32.579Z,33.76
2022-08-17T14:18:55.762Z,33.46
2022-08-17T14:23:55.876Z,33.18
2022-08-17T14:28:57.540Z,32.98
2022-08-17T14:33:59.769Z,32.74
2022-08-17T14:39:01.420Z,32.58
2022-08-17T14:44:04.240Z,32.40
2022-08-17T14:49:05.972Z,32.20
2022-08-17T14:54:07.779Z,31.99
2022-08-17T14:59:09.424Z,31.84
2022-08-17T15:04:14.818Z,31.68
2022-08-17T15:09:16.897Z,31.49
2022-08-17T15:14:19.194Z,31.29
2022-08-17T15:19:20.850Z,31.14
2022-08-17T15:24:22.499Z,30.99
2022-08-17T15:29:24.147Z,30.80
2022-08-17T15:34:25.792Z,30.60
2022-08-17T15:39:27.473Z,30.10
2022-08-17T15:44:32.509Z,29.75
2022-08-17T15:49:39.177Z,29.51
2022-08-17T15:54:40.840Z,29.50
2022-08-17T15:59:47.356Z,29.52
2022-08-17T16:05:03.303Z,29.17
2022-08-17T16:10:06.635Z,27.90
2022-08-17T16:15:08.845Z,27.26
2022-08-17T16:20:20.069Z,26.97
2022-08-17T16:25:38.830Z,26.69
2022-08-17T16:30:47.823Z,26.37
2022-08-17T16:35:49.492Z,25.32
2022-08-17T16:40:51.161Z,23.68
2022-08-17T16:45:52.839Z,22.93
2022-08-17T16:51:03.126Z,22.66
2022-08-17T16:56:07.359Z,22.71
2022-08-17T17:01:09.043Z,22.69
2022-08-17T17:06:18.599Z,22.83
2022-08-17T17:11:26.844Z,22.87
2022-08-17T17:16:28.517Z,22.97
2022-08-17T17:21:37.746Z,23.08
2022-08-17T17:26:48.380Z,23.29
2022-08-17T17:32:05.795Z,23.57
2022-08-17T17:37:10.737Z,23.85
2022-08-17T17:42:20.244Z,23.96
2022-08-17T17:47:22.131Z,24.09
2022-08-17T17:52:36.030Z,24.25
2022-08-17T17:58:00.877Z,24.47
2022-08-17T18:03:08.213Z,24.46
2022-08-17T18:08:32.184Z,24.41
2022-08-17T18:14:23.318Z,24.37
2022-08-17T18:19:26.246Z,24.44
2022-08-17T18:24:42.033Z,24.44
2022-08-17T18:29:44.646Z,24.45
2022-08-17T18:34:48.734Z,24.42
2022-08-17T18:39:50.687Z,24.29
2022-08-17T18:44:55.174Z,24.14
2022-08-17T18:50:00.436Z,23.99
2022-08-17T18:55:22.661Z,23.61
2022-08-17T19:00:37.112Z,23.59
2022-08-17T19:05:40.512Z,23.51
2022-08-17T19:10:46.261Z,23.38
2022-08-17T19:16:14.891Z,23.22
2022-08-17T19:21:29.477Z,23.10
2022-08-17T19:26:54.549Z,23.12
2022-08-17T19:31:58.689Z,22.93
2022-08-17T19:37:06.888Z,22.98
2022-08-17T19:42:24.983Z,22.97
2022-08-17T19:47:54.248Z,22.92
2022-08-17T19:53:17.519Z,22.84
2022-08-17T19:58:44.947Z,22.83
2022-08-17T20:03:52.965Z,22.76
2022-08-17T20:09:24.496Z,22.72
2022-08-17T20:14:39.495Z,22.50
2022-08-17T20:20:03.984Z,22.48
2022-08-17T20:25:13.823Z,22.45
2022-08-17T20:30:34.035Z,22.28
2022-08-17T20:35:38.700Z,22.29
2022-08-17T20:41:00.953Z,22.27
2022-08-17T20:46:17.868Z,22.15
2022-08-17T20:51:31.462Z,22.06
2022-08-17T20:56:46.338Z,22.21
2022-08-17T21:02:18.283Z,22.16
2022-08-17T21:07:42.613Z,22.09
2022-08-17T21:12:49.942Z,22.05
2022-08-17T21:18:03.450Z,21.98
2022-08-17T21:23:40.292Z,21.92
2022-08-17T21:29:00.794Z,21.82
2022-08-17T21:34:15.126Z,21.82
2022-08-17T21:39:21.444Z,21.76
2022-08-17T21:44:33.832Z,21.71
2022-08-17T21:49:37.996Z,21.65
2022-08-17T21:54:42.497Z,21.68
2022-08-17T21:59:44.262Z,21.63
2022-08-17T22:04:56.883Z,21.53
2022-08-17T22:09:58.816Z,21.46
2022-08-17T22:15:02.304Z,21.34
2022-08-17T22:20:17.246Z,21.31
2022-08-17T22:25:22.418Z,21.34
2022-08-17T22:30:37.936Z,21.32
2022-08-17T22:35:43.150Z,21.08
2022-08-17T22:40:55.825Z,21.11
2022-08-17T22:45:58.656Z,21.00
2022-08-17T22:51:12.874Z,20.89
2022-08-17T22:56:36.265Z,21.00
2022-08-17T23:01:39.063Z,20.73
2022-08-17T23:06:43.787Z,20.74
2022-08-17T23:11:50.037Z,20.49
2022-08-17T23:16:52.083Z,20.46
2022-08-17T23:21:56.706Z,20.41
2022-08-17T23:26:58.931Z,20.54
2022-08-17T23:32:01.274Z,20.48
2022-08-17T23:37:04.310Z,20.35
2022-08-17T23:42:08.058Z,20.33
2022-08-17T23:47:10.419Z,20.41
2022-08-17T23:52:15.296Z,20.41
2022-08-17T23:57:19.364Z,20.41
